Time;durP1;ratioP1;P1;durP2;ratioP2;P2;SDS_P1;SDS_P2;PMS_P1;PMS_P2;Temp;Humidity;BMP_temperature;BMP_pressure;BME280_temperature;BME280_humidity;BME280_pressure;Samples;Min_cycle;Max_cycle;Signal;HPM_P1;HPM_P2
2023/09/25 00:00:30;;;;;;;6.18;5.68;;;;;;;-144.30;95.89;84716.63;5071235;28;20196;-59
2023/09/25 00:02:57;;;;;;;6.43;5.82;;;;;;;-144.30;95.71;84714.63;5071389;28;20211;-60
2023/09/25 00:05:25;;;;;;;6.40;6.00;;;;;;;-144.30;95.96;84710.66;5071223;28;20262;-60
2023/09/25 00:07:52;;;;;;;6.07;5.53;;;;;;;-144.30;95.89;84704.69;5071402;28;20634;-59
2023/09/25 00:10:19;;;;;;;8.10;5.90;;;;;;;-144.30;95.88;84708.66;5070896;28;20200;-59
2023/09/25 00:12:47;;;;;;;7.03;6.20;;;;;;;-144.30;96.03;84698.75;5071042;28;20200;-59
2023/09/25 00:15:14;;;;;;;6.63;6.07;;;;;;;-144.30;95.94;84694.75;5070921;28;20559;-59
2023/09/25 00:17:43;;;;;;;6.38;5.97;;;;;;;-144.30;95.99;84688.81;5070483;28;20220;-59
2023/09/25 00:20:11;;;;;;;6.53;6.03;;;;;;;-144.30;96.23;84712.66;5070568;28;20203;-59
2023/09/25 00:22:38;;;;;;;7.10;5.45;;;;;;;-144.30;96.39;84738.47;5070947;28;20612;-58
2023/09/25 00:25:07;;;;;;;5.82;5.35;;;;;;;-144.30;96.46;84748.44;5070645;28;20200;-60
2023/09/25 00:27:34;;;;;;;5.90;5.47;;;;;;;-144.30;96.34;84720.59;5070641;28;20237;-59
2023/09/25 00:30:06;;;;;;;5.63;5.22;;;;;;;-144.30;96.42;84724.56;5070284;28;20192;-58
2023/09/25 00:32:33;;;;;;;5.88;5.43;;;;;;;-144.30;96.44;84720.59;5070846;28;20200;-58
2023/09/25 00:35:00;;;;;;;6.72;6.20;;;;;;;-144.30;96.44;84708.66;5070478;28;20625;-58
2023/09/25 00:37:27;;;;;;;6.45;6.05;;;;;;;-144.30;96.49;84752.41;5070550;28;20220;-58
2023/09/25 00:39:55;;;;;;;6.45;5.95;;;;;;;-144.30;96.53;84724.56;5070605;28;20200;-58
2023/09/25 00:42:22;;;;;;;6.80;6.30;;;;;;;-144.30;96.95;84762.34;5070091;28;20197;-58
2023/09/25 00:44:49;;;;;;;8.05;5.97;;;;;;;-144.30;96.92;84736.50;5069705;28;20208;-57
2023/09/25 00:47:17;;;;;;;6.90;6.18;;;;;;;-144.30;96.98;84770.28;5069998;28;20192;-59
2023/09/25 00:49:45;;;;;;;6.55;6.05;;;;;;;-144.30;97.09;84768.31;5070173;28;20204;-60
2023/09/25 00:52:12;;;;;;;6.10;5.70;;;;;;;-144.30;96.86;84784.19;5070355;28;20192;-59
2023/09/25 00:54:40;;;;;;;6.30;5.90;;;;;;;-144.30;96.88;84730.53;5070104;28;20581;-60
2023/09/25 00:57:07;;;;;;;7.25;6.13;;;;;;;-144.30;96.83;84768.31;5069726;28;20234;-60
2023/09/25 00:59:34;;;;;;;6.35;5.88;;;;;;;-144.30;96.62;84736.50;5070294;28;20781;-60
2023/09/25 01:02:01;;;;;;;6.32;5.85;;;;;;;-144.30;96.73;84756.38;5069983;28;20206;-60
2023/09/25 01:04:29;;;;;;;6.18;5.78;;;;;;;-144.30;96.83;84752.41;5070236;28;20204;-59
2023/09/25 01:06:56;;;;;;;6.45;6.05;;;;;;;-144.30;96.68;84748.44;5069928;28;20192;-58
2023/09/25 01:09:23;;;;;;;7.22;6.05;;;;;;;-144.30;96.51;84758.38;5069582;28;20203;-61
2023/09/25 01:11:50;;;;;;;7.05;6.20;;;;;;;-144.30;96.65;84738.47;5069778;28;20199;-60
2023/09/25 01:14:17;;;;;;;6.25;5.85;;;;;;;-144.30;96.51;84746.44;5069747;28;20196;-60
2023/09/25 01:16:44;;;;;;;6.25;5.75;;;;;;;-144.30;96.60;84736.50;5069618;28;20262;-59
2023/09/25 01:19:13;;;;;;;6.05;5.65;;;;;;;-144.30;96.60;84664.94;5069380;28;20712;-58
2023/09/25 01:21:45;;;;;;;6.10;5.60;;;;;;;-144.30;96.78;84766.31;5069677;28;20206;-60
2023/09/25 01:24:12;;;;;;;6.00;5.60;;;;;;;-144.30;96.49;84760.34;5069408;28;20203;-58
2023/09/25 01:26:38;;;;;;;5.97;5.45;;;;;;;-144.30;96.33;84746.44;5069621;28;20195;-59
2023/09/25 01:29:05;;;;;;;6.38;5.97;;;;;;;-144.30;96.34;84730.53;5069139;28;20196;-61
2023/09/25 01:31:32;;;;;;;10.20;5.82;;;;;;;-144.30;96.41;84764.31;5069851;28;20661;-58
2023/09/25 01:33:59;;;;;;;5.90;5.50;;;;;;;-144.30;96.35;84744.44;5069579;28;20200;-59
2023/09/25 01:36:26;;;;;;;8.40;5.90;;;;;;;-144.30;96.34;84764.31;5069074;28;20226;-60
2023/09/25 01:38:54;;;;;;;6.25;5.70;;;;;;;-144.30;96.22;84740.47;5069666;28;20196;-59
2023/09/25 01:41:22;;;;;;;5.90;5.50;;;;;;;-144.30;96.44;84718.63;5069601;28;20580;-58
2023/09/25 01:43:48;;;;;;;8.60;5.70;;;;;;;-144.30;96.49;84716.63;5069590;28;20250;-58
2023/09/25 01:46:15;;;;;;;6.15;5.65;;;;;;;-144.30;96.30;84740.47;5069172;28;20569;-60
2023/09/25 01:48:42;;;;;;;6.30;5.75;;;;;;;-144.30;96.10;84734.50;5069342;28;20200;-58
2023/09/25 01:51:10;;;;;;;7.80;5.82;;;;;;;-144.30;96.13;84760.34;5069423;28;20200;-58
2023/09/25 01:53:37;;;;;;;5.95;5.55;;;;;;;-144.30;96.06;84782.22;5069398;28;20204;-57
2023/09/25 01:56:15;;;;;;;6.50;5.55;;;;;;;-144.30;96.01;84718.63;5069089;28;20199;-59
2023/09/25 01:58:43;;;;;;;6.00;5.57;;;;;;;-144.30;95.86;84768.31;5069223;28;20195;-57
2023/09/25 02:01:10;;;;;;;8.27;5.60;;;;;;;-144.30;95.90;84768.31;5069205;28;20599;-59
2023/09/25 02:03:37;;;;;;;6.53;5.78;;;;;;;-144.30;96.09;84694.75;5069019;28;20207;-58
2023/09/25 02:06:05;;;;;;;6.43;5.82;;;;;;;-144.30;96.12;84756.38;5068974;28;20207;-57
2023/09/25 02:08:32;;;;;;;4.97;4.68;;;;;;;-144.30;96.08;84796.13;5069158;28;20199;-58
2023/09/25 02:10:59;;;;;;;6.05;5.65;;;;;;;-144.30;96.20;84800.09;5069181;28;20685;-58
2023/09/25 02:13:27;;;;;;;6.03;5.70;;;;;;;-144.30;96.33;84788.19;5069197;28;20571;-60
2023/09/25 02:15:54;;;;;;;6.30;5.88;;;;;;;-144.30;96.33;84774.25;5069108;28;20286;-57
2023/09/25 02:18:21;;;;;;;7.00;5.15;;;;;;;-144.30;96.33;84756.38;5068600;28;20289;-58
2023/09/25 02:20:49;;;;;;;6.07;5.68;;;;;;;-144.30;96.15;84778.25;5069234;28;20290;-59
2023/09/25 02:23:16;;;;;;;6.32;5.72;;;;;;;-144.30;96.29;84786.19;5068577;28;20199;-58
2023/09/25 02:25:43;;;;;;;6.68;5.95;;;;;;;-144.30;96.29;84794.13;5069114;28;20587;-60
2023/09/25 02:28:10;;;;;;;6.63;6.13;;;;;;;-144.30;96.26;84764.31;5068788;28;20192;-60
2023/09/25 02:30:38;;;;;;;6.35;5.70;;;;;;;-144.30;96.15;84740.47;5068983;28;20200;-60
2023/09/25 02:33:05;;;;;;;6.63;5.88;;;;;;;-144.30;96.08;84726.56;5068749;28;20206;-59
2023/09/25 02:35:32;;;;;;;6.72;6.05;;;;;;;-144.30;95.91;84776.25;5068919;28;20207;-58
2023/09/25 02:37:59;;;;;;;6.60;6.07;;;;;;;-144.30;95.81;84760.34;5068699;28;20651;-59
2023/09/25 02:40:26;;;;;;;7.68;5.53;;;;;;;-144.30;95.71;84752.41;5069048;28;20646;-59
2023/09/25 02:42:53;;;;;;;7.70;6.05;;;;;;;-144.30;95.60;84760.34;5068852;28;20202;-59
2023/09/25 02:45:20;;;;;;;6.75;6.15;;;;;;;-144.30;95.45;84784.19;5068453;28;20651;-59
2023/09/25 02:47:48;;;;;;;7.53;6.65;;;;;;;-144.30;95.47;84774.25;5068977;28;20580;-59
2023/09/25 02:50:15;;;;;;;6.72;6.15;;;;;;;-144.30;95.79;84758.38;5068622;28;20200;-61
2023/09/25 02:52:43;;;;;;;6.65;6.05;;;;;;;-144.30;95.73;84788.19;5068821;28;20199;-60
2023/09/25 02:55:10;;;;;;;6.97;5.72;;;;;;;-144.30;95.62;84764.31;5068572;28;20672;-60
2023/09/25 02:57:37;;;;;;;8.43;6.30;;;;;;;-144.30;95.55;84768.31;5068681;28;20220;-60
2023/09/25 03:00:09;;;;;;;6.22;5.72;;;;;;;-144.30;95.04;84768.31;5068198;28;20203;-59
2023/09/25 03:02:35;;;;;;;6.43;5.85;;;;;;;-144.30;95.29;84746.44;5069186;28;20579;-59
2023/09/25 03:05:05;;;;;;;6.53;6.03;;;;;;;-144.30;95.19;84788.19;5068511;28;20196;-59
2023/09/25 03:07:32;;;;;;;10.40;6.20;;;;;;;-144.30;94.91;84780.22;5070925;28;20257;-59
2023/09/25 03:09:59;;;;;;;10.38;6.10;;;;;;;-144.30;94.69;84764.31;5072306;28;20245;-59
2023/09/25 03:12:27;;;;;;;6.85;5.90;;;;;;;-144.30;94.84;84766.31;5071900;28;20206;-57
2023/09/25 03:14:54;;;;;;;6.55;5.97;;;;;;;-144.30;95.11;84764.31;5072526;28;20204;-58
2023/09/25 03:17:21;;;;;;;6.95;5.70;;;;;;;-144.30;94.84;84758.38;5071894;28;20219;-58
2023/09/25 03:19:51;;;;;;;6.20;5.60;;;;;;;-144.30;94.82;84796.13;5071893;28;20228;-59
2023/09/25 03:22:19;;;;;;;6.10;5.60;;;;;;;-144.30;94.58;84784.19;5071888;28;20693;-59
2023/09/25 03:24:48;;;;;;;8.65;5.97;;;;;;;-144.30;94.54;84682.84;5071853;28;20204;-60
2023/09/25 03:27:16;;;;;;;15.20;6.03;;;;;;;-144.30;94.42;84804.06;5072039;28;20253;-58
2023/09/25 03:29:43;;;;;;;6.30;5.70;;;;;;;-144.30;94.50;84764.31;5071882;28;20192;-58
2023/09/25 03:32:10;;;;;;;7.55;5.72;;;;;;;-144.30;94.13;84772.28;5071619;28;20199;-58
2023/09/25 03:34:37;;;;;;;7.75;5.47;;;;;;;-144.30;94.07;84766.31;5071859;28;20210;-58
2023/09/25 03:37:04;;;;;;;8.75;6.03;;;;;;;-144.30;93.92;84790.16;5071388;28;20306;-58
2023/09/25 03:39:32;;;;;;;6.35;5.85;;;;;;;-144.30;93.92;84772.28;5071520;28;20208;-59
2023/09/25 03:41:59;;;;;;;6.95;6.47;;;;;;;-144.30;93.83;84808.06;5068941;28;20188;-58
2023/09/25 03:44:27;;;;;;;8.98;6.18;;;;;;;-144.30;93.68;84774.25;5071196;28;20206;-59
2023/09/25 03:46:53;;;;;;;6.35;5.85;;;;;;;-144.30;93.88;84501.97;5070856;28;20276;-58
2023/09/25 03:49:20;;;;;;;7.10;6.53;;;;;;;-144.30;93.92;84762.34;5070925;28;20668;-58
2023/09/25 03:51:47;;;;;;;8.68;6.57;;;;;;;-144.30;93.85;84792.16;5071460;28;20207;-60
2023/09/25 03:54:14;;;;;;;6.10;5.70;;;;;;;-144.30;93.86;84784.19;5071419;28;20660;-60
2023/09/25 03:56:43;;;;;;;8.95;8.00;;;;;;;-144.30;94.00;84821.97;5071675;28;20200;-59
2023/09/25 03:59:11;;;;;;;7.65;6.97;;;;;;;-144.30;94.08;84794.13;5071146;28;20637;-60
2023/09/25 04:01:37;;;;;;;6.93;6.32;;;;;;;-144.30;93.99;84744.44;5071501;28;20598;-60
2023/09/25 04:04:06;;;;;;;9.52;6.40;;;;;;;-144.30;94.31;84776.25;5070936;28;20620;-58
2023/09/25 04:06:33;;;;;;;9.48;6.30;;;;;;;-144.30;93.67;84784.19;5071039;28;20196;-60
2023/09/25 04:09:00;;;;;;;7.20;6.25;;;;;;;-144.30;93.29;84780.22;5071037;28;20192;-61
2023/09/25 04:11:27;;;;;;;7.40;6.55;;;;;;;-144.30;93.39;84760.34;5070993;28;20192;-66
2023/09/25 04:13:56;;;;;;;9.30;6.97;;;;;;;-144.30;93.43;84764.31;5071075;28;20196;-68
2023/09/25 04:16:23;;;;;;;7.25;6.60;;;;;;;-144.30;93.25;84784.19;5069293;28;20200;-65
2023/09/25 04:18:50;;;;;;;7.32;6.57;;;;;;;-144.30;93.56;84798.13;5068060;28;20797;-65
2023/09/25 04:21:17;;;;;;;7.68;6.97;;;;;;;-144.30;93.59;84750.41;5069574;28;20200;-65
2023/09/25 04:23:44;;;;;;;10.35;6.55;;;;;;;-144.30;93.38;84780.22;5070242;28;20737;-66
2023/09/25 04:26:11;;;;;;;7.88;6.93;;;;;;;-144.30;93.39;84768.31;5069720;28;20204;-65
2023/09/25 04:28:40;;;;;;;7.93;6.80;;;;;;;-144.30;93.54;84818.00;5069968;28;20750;-66
2023/09/25 04:31:10;;;;;;;11.20;6.78;;;;;;;-144.30;93.52;84732.53;5069922;28;20204;-69
2023/09/25 04:33:38;;;;;;;9.57;6.63;;;;;;;-144.30;93.50;84744.44;5070087;28;20204;-68
2023/09/25 04:36:08;;;;;;;6.85;6.25;;;;;;;-144.30;93.44;84802.09;5069844;28;20207;-69
2023/09/25 04:38:35;;;;;;;7.82;6.85;;;;;;;-144.30;93.58;84798.13;5070451;28;20220;-70
2023/09/25 04:41:02;;;;;;;7.70;7.00;;;;;;;-144.30;93.58;84786.19;5070569;28;20251;-69
2023/09/25 04:43:29;;;;;;;9.68;7.07;;;;;;;-144.30;93.35;84784.19;5071034;28;20735;-70
2023/09/25 04:45:58;;;;;;;7.15;6.45;;;;;;;-144.30;93.36;84740.47;5069327;28;20206;-69
2023/09/25 04:48:29;;;;;;;7.63;6.53;;;;;;;-144.30;93.64;84788.19;5069194;28;20285;-69
2023/09/25 04:50:56;;;;;;;8.32;7.50;;;;;;;-144.30;93.73;84808.06;5070225;28;20220;-70
2023/09/25 04:53:23;;;;;;;7.10;6.40;;;;;;;-144.30;93.73;84794.13;5070173;28;20626;-68
2023/09/25 04:55:50;;;;;;;6.55;6.15;;;;;;;-144.30;93.46;84770.28;5069985;28;20196;-68
2023/09/25 04:58:17;;;;;;;9.15;6.32;;;;;;;-144.30;93.42;84772.28;5069884;28;20760;-65
2023/09/25 05:00:44;;;;;;;7.65;6.93;;;;;;;-144.30;93.14;84798.13;5069864;28;20203;-65
2023/09/25 05:03:11;;;;;;;7.68;6.97;;;;;;;-144.30;92.85;84722.59;5069602;28;20196;-67
2023/09/25 05:05:40;;;;;;;7.30;6.70;;;;;;;-144.30;93.08;84792.16;5070013;28;20592;-69
2023/09/25 05:08:07;;;;;;;15.85;7.45;;;;;;;-144.30;93.32;84752.41;5069479;28;20692;-69
2023/09/25 05:10:35;;;;;;;8.63;7.50;;;;;;;-144.30;93.13;84734.50;5064799;28;20235;-68
2023/09/25 05:13:02;;;;;;;14.63;7.65;;;;;;;-144.30;93.50;84796.13;5069127;28;20627;-67
2023/09/25 05:15:28;;;;;;;12.88;7.18;;;;;;;-144.30;93.40;84750.41;5069480;28;20902;-69
2023/09/25 05:17:55;;;;;;;14.80;7.43;;;;;;;-144.30;93.29;84756.38;5069454;28;20236;-70
2023/09/25 05:20:25;;;;;;;9.27;7.57;;;;;;;-144.30;93.33;84758.38;5069315;28;20204;-64
2023/09/25 05:22:55;;;;;;;17.80;8.10;;;;;;;-144.30;93.19;84782.22;5069206;28;20203;-66
2023/09/25 05:25:22;;;;;;;8.50;7.53;;;;;;;-144.30;92.99;84748.44;5068576;28;20207;-65
2023/09/25 05:27:51;;;;;;;17.20;9.38;;;;;;;-144.30;93.01;84756.38;5069291;28;20200;-66
2023/09/25 05:30:19;;;;;;;15.27;8.43;;;;;;;-144.30;93.17;84688.81;5069300;28;20727;-68
2023/09/25 05:32:48;;;;;;;16.30;8.63;;;;;;;-144.30;92.91;84798.13;5069579;28;20224;-67
2023/09/25 05:35:16;;;;;;;9.52;8.57;;;;;;;-144.30;92.40;84762.34;5069313;28;20655;-63
2023/09/25 05:37:45;;;;;;;17.02;8.25;;;;;;;-144.30;92.20;84732.53;5069208;28;20259;-66
2023/09/25 05:40:15;;;;;;;26.90;8.80;;;;;;;-144.30;92.15;84756.38;5068301;28;20206;-66
2023/09/25 05:42:43;;;;;;;9.50;8.32;;;;;;;-144.30;92.23;84758.38;5069298;28;20200;-63
2023/09/25 05:45:11;;;;;;;12.57;8.40;;;;;;;-144.30;92.25;84774.25;5068870;28;20597;-65
2023/09/25 05:47:38;;;;;;;13.50;8.10;;;;;;;-144.30;91.94;84776.25;5069357;28;20866;-65
2023/09/25 05:50:07;;;;;;;13.20;8.35;;;;;;;-144.30;92.17;84796.13;5068441;28;20287;-66
2023/09/25 05:52:34;;;;;;;10.00;8.55;;;;;;;-144.30;92.54;84796.13;5068889;28;20206;-65
2023/09/25 05:55:01;;;;;;;10.75;7.90;;;;;;;-144.30;92.17;84764.31;5068527;28;20664;-65
2023/09/25 05:57:30;;;;;;;12.60;8.20;;;;;;;-144.30;91.90;84772.28;5068853;28;20290;-66
2023/09/25 05:59:59;;;;;;;9.60;8.27;;;;;;;-144.30;92.09;84804.06;5069067;28;20223;-66
2023/09/25 06:02:27;;;;;;;22.55;9.50;;;;;;;-144.30;91.83;84776.25;5068607;28;20634;-66
2023/09/25 06:04:54;;;;;;;33.88;10.15;;;;;;;-144.30;91.65;84730.53;5068987;28;20655;-66
2023/09/25 06:07:21;;;;;;;43.90;10.38;;;;;;;-144.30;91.36;84758.38;5068865;28;20195;-65
2023/09/25 06:09:49;;;;;;;13.30;8.18;;;;;;;-144.30;91.11;84770.28;5068568;28;20203;-62
2023/09/25 06:12:16;;;;;;;68.63;12.93;;;;;;;-144.30;91.01;84756.38;5068655;28;20245;-63
2023/09/25 06:14:44;;;;;;;10.07;8.18;;;;;;;-144.30;90.91;84756.38;5069027;28;20199;-63
2023/09/25 06:17:11;;;;;;;15.93;9.45;;;;;;;-144.30;90.67;84760.34;5068708;28;20210;-66
2023/09/25 06:19:38;;;;;;;14.45;8.23;;;;;;;-144.30;90.53;84686.81;5068114;28;20322;-63
2023/09/25 06:22:05;;;;;;;15.13;8.07;;;;;;;-144.30;90.52;84758.38;5064066;28;20207;-64
2023/09/25 06:24:31;;;;;;;19.27;7.88;;;;;;;-144.30;90.14;84698.75;5068713;28;20208;-63
2023/09/25 06:27:01;;;;;;;29.65;8.85;;;;;;;-144.30;88.82;84670.91;5068643;28;20253;-64
2023/09/25 06:29:28;;;;;;;10.63;7.53;;;;;;;-144.30;86.90;84609.31;5068722;28;20206;-64
2023/09/25 06:31:56;;;;;;;9.65;7.55;;;;;;;-144.30;85.20;84569.53;5077825;28;20286;-65
2023/09/25 06:34:23;;;;;;;8.52;7.57;;;;;;;-144.30;84.70;84525.81;5070731;28;20199;-66
2023/09/25 06:36:50;;;;;;;7.40;6.68;;;;;;;-144.30;83.91;84511.91;5068267;28;20195;-63
2023/09/25 06:39:17;;;;;;;11.60;6.57;;;;;;;-144.30;83.03;84482.09;5068622;28;20245;-65
2023/09/25 06:41:44;;;;;;;18.60;7.43;;;;;;;-144.30;80.71;84374.78;5070078;28;20329;-65
2023/09/25 06:44:12;;;;;;;24.08;6.72;;;;;;;-144.30;79.78;84305.22;5072371;28;20291;-65
2023/09/25 06:46:39;;;;;;;12.68;6.60;;;;;;;-144.30;76.97;84199.91;5072777;28;20707;-66
2023/09/25 06:49:07;;;;;;;12.23;6.25;;;;;;;-144.30;75.54;84072.72;5072314;28;20226;-67
2023/09/25 06:51:34;;;;;;;9.70;5.68;;;;;;;-144.30;70.82;83931.63;5072041;28;20206;-64
2023/09/25 06:54:01;;;;;;;6.68;5.18;;;;;;;-144.30;68.20;83832.28;5072445;28;20195;-63
2023/09/25 06:56:28;;;;;;;6.50;4.35;;;;;;;-144.30;66.10;83615.69;5072181;28;20203;-64
2023/09/25 06:58:55;;;;;;;16.52;5.72;;;;;;;-144.30;62.53;83478.59;5072385;28;20220;-64
2023/09/25 07:01:23;;;;;;;7.72;5.15;;;;;;;-144.30;61.47;83361.38;5071546;28;20420;-63
2023/09/25 07:03:50;;;;;;;8.55;4.65;;;;;;;-144.30;58.99;83214.38;5070989;28;20254;-63
2023/09/25 07:06:19;;;;;;;9.77;5.07;;;;;;;-144.30;57.60;83035.56;5072315;28;20579;-63
2023/09/25 07:08:46;;;;;;;5.85;5.30;;;;;;;-144.30;56.64;83119.00;5072517;28;20196;-63
2023/09/25 07:11:13;;;;;;;18.70;5.05;;;;;;;-144.30;57.53;83218.34;5071901;28;20218;-66
2023/09/25 07:13:40;;;;;;;7.43;5.57;;;;;;;-144.30;58.03;83250.13;5072282;28;20592;-63
2023/09/25 07:16:08;;;;;;;15.80;5.38;;;;;;;-144.30;58.34;83279.94;5071870;28;20641;-64
2023/09/25 07:18:35;;;;;;;8.32;5.03;;;;;;;-144.30;58.84;83321.66;5071966;28;20281;-64
2023/09/25 07:21:03;;;;;;;6.63;5.38;;;;;;;-144.30;59.88;83417.00;5071961;28;20204;-63
2023/09/25 07:23:32;;;;;;;10.20;6.00;;;;;;;-144.30;60.56;83472.66;5072011;28;20218;-63
2023/09/25 07:26:08;;;;;;;8.00;6.22;;;;;;;-144.30;60.45;83504.44;5071956;28;20207;-63
2023/09/25 07:28:36;;;;;;;8.25;5.60;;;;;;;-144.30;61.82;83572.00;5072129;28;20598;-62
2023/09/25 07:31:05;;;;;;;6.72;4.95;;;;;;;-144.30;62.97;83679.28;5071819;28;20196;-63
2023/09/25 07:33:32;;;;;;;13.50;6.32;;;;;;;-144.30;64.08;83711.06;5071945;28;20227;-62
2023/09/25 07:36:00;;;;;;;11.80;6.18;;;;;;;-144.30;64.95;83810.41;5071884;28;20633;-64
2023/09/25 07:38:27;;;;;;;10.73;5.82;;;;;;;-144.30;65.05;83806.44;5071737;28;20293;-67
2023/09/25 07:40:57;;;;;;;11.00;5.70;;;;;;;-144.30;65.49;83744.84;5071831;28;20643;-63
2023/09/25 07:43:24;;;;;;;10.00;5.88;;;;;;;-144.30;64.66;83770.69;5071454;28;20226;-62
2023/09/25 07:45:54;;;;;;;7.35;5.80;;;;;;;-144.30;64.46;83772.66;5070700;28;20206;-63
2023/09/25 07:48:21;;;;;;;17.60;6.90;;;;;;;-144.30;64.56;83812.41;5067708;28;20737;-63
2023/09/25 07:50:48;;;;;;;6.55;5.47;;;;;;;-144.30;64.31;83808.44;5071223;28;20200;-64
2023/09/25 07:53:15;;;;;;;6.90;6.10;;;;;;;-144.30;64.48;83774.66;5070786;28;20207;-63
2023/09/25 07:55:42;;;;;;;7.68;5.45;;;;;;;-144.30;64.32;83822.34;5071149;28;20666;-63
2023/09/25 07:58:11;;;;;;;7.53;5.78;;;;;;;-144.30;64.50;83850.16;5070883;28;20243;-64
2023/09/25 08:00:44;;;;;;;10.05;5.72;;;;;;;-144.30;64.61;83830.28;5071216;28;20196;-63
2023/09/25 08:03:15;;;;;;;6.07;5.57;;;;;;;-144.30;64.21;83852.16;5070447;28;20599;-62
2023/09/25 08:05:41;;;;;;;6.28;5.63;;;;;;;-144.30;63.95;83844.19;5071327;28;20279;-64
2023/09/25 08:08:10;;;;;;;10.07;6.03;;;;;;;-144.30;63.56;83842.22;5070877;28;20550;-63
2023/09/25 08:10:38;;;;;;;8.93;5.85;;;;;;;-144.30;63.17;83858.09;5071069;28;20660;-63
2023/09/25 08:13:05;;;;;;;12.23;5.55;;;;;;;-144.30;63.29;83862.09;5071225;28;20278;-63
2023/09/25 08:15:35;;;;;;;6.68;6.07;;;;;;;-144.30;62.93;83907.78;5070141;28;20287;-64
2023/09/25 08:18:02;;;;;;;6.43;5.82;;;;;;;-144.30;63.31;83850.16;5070735;28;20231;-62
2023/09/25 08:20:29;;;;;;;13.82;6.10;;;;;;;-144.30;64.02;83931.63;5070743;28;20196;-63
2023/09/25 08:22:56;;;;;;;11.98;6.07;;;;;;;-144.30;65.26;84017.06;5070580;28;20199;-61
2023/09/25 08:25:24;;;;;;;8.75;6.70;;;;;;;-144.30;66.56;84080.66;5070372;28;20206;-62
2023/09/25 08:27:52;;;;;;;7.50;5.50;;;;;;;-144.30;67.09;84096.56;5070819;28;20192;-61
2023/09/25 08:30:20;;;;;;;9.40;6.25;;;;;;;-144.30;67.65;84104.50;5070259;28;20279;-63
2023/09/25 08:32:48;;;;;;;10.40;6.20;;;;;;;-144.30;67.54;84090.59;5070270;28;20200;-62
2023/09/25 08:35:15;;;;;;;8.95;7.18;;;;;;;-144.30;67.17;84036.94;5070158;28;20196;-66
2023/09/25 08:37:42;;;;;;;7.55;6.82;;;;;;;-144.30;66.80;84029.00;5070731;28;20568;-66
2023/09/25 08:40:10;;;;;;;8.93;6.53;;;;;;;-144.30;66.21;84031.00;5069945;28;20302;-66
2023/09/25 08:42:38;;;;;;;7.30;6.63;;;;;;;-144.30;66.10;83993.22;5070456;28;20277;-65
2023/09/25 08:45:06;;;;;;;8.45;6.57;;;;;;;-144.30;65.79;84001.19;5070289;28;20192;-66
2023/09/25 08:47:34;;;;;;;11.15;6.53;;;;;;;-144.30;64.62;83929.66;5070279;28;20234;-65
2023/09/25 08:50:03;;;;;;;6.57;6.03;;;;;;;-144.30;64.01;83899.84;5070272;28;20192;-66
2023/09/25 08:52:32;;;;;;;7.55;6.40;;;;;;;-144.30;63.00;83901.81;5070143;28;20192;-64
2023/09/25 08:55:00;;;;;;;7.80;6.43;;;;;;;-144.30;62.20;83802.47;5070594;28;20200;-65
2023/09/25 08:57:27;;;;;;;7.15;6.25;;;;;;;-144.30;61.59;83788.56;5070160;28;20200;-65
2023/09/25 08:59:54;;;;;;;8.40;6.38;;;;;;;-144.30;61.76;83826.31;5069892;28;20234;-62
2023/09/25 09:02:22;;;;;;;7.30;6.40;;;;;;;-144.30;62.80;83919.72;5069615;28;20196;-65
2023/09/25 09:04:49;;;;;;;10.88;7.25;;;;;;;-144.30;63.22;83881.97;5069308;28;20187;-65
2023/09/25 09:07:17;;;;;;;6.93;6.35;;;;;;;-144.30;63.96;83961.44;5069463;28;20199;-63
2023/09/25 09:09:44;;;;;;;11.20;7.30;;;;;;;-144.30;64.69;83957.47;5069783;28;20206;-63
2023/09/25 09:12:12;;;;;;;11.80;8.27;;;;;;;-144.30;64.63;83979.31;5069371;28;20196;-64
2023/09/25 09:14:41;;;;;;;17.90;11.43;;;;;;;-144.30;64.64;83969.38;5069773;28;20196;-64
2023/09/25 09:17:10;;;;;;;19.70;9.00;;;;;;;-144.30;64.65;83979.31;5069195;28;20611;-66
2023/09/25 09:19:50;;;;;;;13.18;9.75;;;;;;;-144.30;63.38;83905.81;5069464;28;20718;-64
2023/09/25 09:22:19;;;;;;;12.25;9.10;;;;;;;-144.30;62.51;83897.84;5069341;28;20206;-64
2023/09/25 09:24:47;;;;;;;10.35;9.43;;;;;;;-144.30;62.10;83903.81;5069735;28;20660;-65
2023/09/25 09:27:20;;;;;;;10.18;9.18;;;;;;;-144.30;62.13;83842.22;5069354;28;20199;-65
2023/09/25 09:29:49;;;;;;;10.73;9.32;;;;;;;-144.30;61.70;83844.19;5069553;28;20262;-64
2023/09/25 09:32:18;;;;;;;12.57;8.18;;;;;;;-144.30;60.99;83838.25;5069475;28;20584;-62
2023/09/25 09:34:47;;;;;;;11.40;8.70;;;;;;;-144.30;61.29;83820.34;5069587;28;20287;-65
2023/09/25 09:37:15;;;;;;;9.98;9.05;;;;;;;-144.30;61.47;83891.88;5069134;28;20192;-64
2023/09/25 09:39:51;;;;;;;8.77;7.95;;;;;;;-144.30;61.03;83808.44;5069415;28;20711;-63
2023/09/25 09:42:21;;;;;;;16.40;9.02;;;;;;;-144.30;60.79;83840.22;5064252;28;20230;-62
2023/09/25 09:44:48;;;;;;;9.95;8.70;;;;;;;-144.30;60.75;83828.31;5069263;28;20694;-63
2023/09/25 09:47:20;;;;;;;8.73;7.82;;;;;;;-144.30;59.93;83826.31;5068806;28;20208;-63
2023/09/25 09:49:49;;;;;;;9.35;7.55;;;;;;;-144.30;59.85;83842.22;5069126;28;20200;-63
2023/09/25 09:52:19;;;;;;;8.82;6.95;;;;;;;-144.30;59.98;83832.28;5080369;28;20682;-63
2023/09/25 09:54:50;;;;;;;7.80;6.97;;;;;;;-144.30;59.17;83868.03;5068943;28;20672;-63
2023/09/25 09:57:19;;;;;;;7.68;6.88;;;;;;;-144.30;59.20;83774.66;5068327;28;20195;-63
2023/09/25 09:59:48;;;;;;;8.00;7.22;;;;;;;-144.30;59.25;83784.59;5069091;28;20227;-63
2023/09/25 10:02:16;;;;;;;6.97;6.38;;;;;;;-144.30;59.04;83788.56;5069004;28;20211;-63
2023/09/25 10:04:44;;;;;;;7.50;7.05;;;;;;;-144.30;59.15;83824.31;5069079;28;20237;-62
2023/09/25 10:07:11;;;;;;;7.43;6.68;;;;;;;-144.30;59.77;83838.25;5068664;28;20200;-63
2023/09/25 10:09:56;;;;;;;7.80;7.15;;;;;;;-144.30;59.68;83858.09;5069251;28;20192;-62
2023/09/25 10:15:22;;;;;;;8.52;7.93;;;;;;;-144.30;58.66;83736.91;5086694;27;20540;-64
2023/09/25 10:17:49;;;;;;;10.63;7.60;;;;;;;-144.30;57.84;83679.28;5086726;28;20200;-60
2023/09/25 10:20:33;;;;;;;7.05;6.65;;;;;;;-144.30;57.90;83719.03;5086383;28;20199;-61
2023/09/25 10:23:03;;;;;;;10.32;6.97;;;;;;;-144.30;57.89;83699.16;5087016;28;20287;-65
2023/09/25 10:25:32;;;;;;;20.80;8.32;;;;;;;-144.30;57.53;83679.28;5085859;28;20203;-66
2023/09/25 10:27:59;;;;;;;8.63;7.00;;;;;;;-144.30;57.60;83669.34;5086347;28;20256;-66
2023/09/25 10:30:27;;;;;;;7.78;6.78;;;;;;;-144.30;56.53;83683.25;5086555;28;20195;-65
2023/09/25 10:32:56;;;;;;;6.97;6.43;;;;;;;-144.30;56.87;83734.91;5082840;28;20199;-64
2023/09/25 10:35:40;;;;;;;6.80;6.07;;;;;;;-144.30;56.68;83746.84;5065453;28;20204;-65
2023/09/25 10:38:19;;;;;;;7.38;6.63;;;;;;;-144.30;57.14;83681.28;5066238;28;20585;-65
2023/09/25 10:40:49;;;;;;;6.70;6.03;;;;;;;-144.30;56.48;83687.22;5065994;28;20219;-63
2023/09/25 10:43:17;;;;;;;7.93;6.47;;;;;;;-144.30;56.36;83721.00;5065842;28;20198;-62
2023/09/25 10:45:46;;;;;;;7.63;6.70;;;;;;;-144.30;56.73;83715.03;5066037;28;20196;-63
2023/09/25 10:48:13;;;;;;;10.00;7.20;;;;;;;-144.30;56.71;83681.28;5065612;28;20196;-64
2023/09/25 10:50:41;;;;;;;9.85;7.25;;;;;;;-144.30;57.09;83723.00;5066010;28;20620;-64
2023/09/25 10:53:09;;;;;;;8.48;6.47;;;;;;;-144.30;56.39;83629.59;5065775;28;20200;-63
2023/09/25 10:55:36;;;;;;;6.78;6.28;;;;;;;-144.30;55.42;83631.59;5065271;28;20291;-63
2023/09/25 10:58:06;;;;;;;6.72;6.25;;;;;;;-144.30;55.43;83623.66;5065477;28;20210;-64
2023/09/25 11:00:34;;;;;;;7.03;6.38;;;;;;;-144.30;55.15;83621.66;5065515;28;20616;-62
2023/09/25 11:03:03;;;;;;;6.22;5.72;;;;;;;-144.30;54.38;83635.56;5065610;28;20200;-61
2023/09/25 11:05:30;;;;;;;7.45;5.82;;;;;;;-144.30;54.52;83611.72;5065189;28;20222;-63
2023/09/25 11:07:58;;;;;;;6.05;5.65;;;;;;;-144.30;54.78;83572.00;5065417;28;20192;-63
2023/09/25 11:10:29;;;;;;;7.53;6.22;;;;;;;-144.30;55.03;83613.72;5064744;28;20269;-64
2023/09/25 11:12:57;;;;;;;6.65;5.85;;;;;;;-144.30;55.31;83649.47;5065112;28;20200;-65
2023/09/25 11:15:25;;;;;;;7.28;6.68;;;;;;;-144.30;55.67;83675.31;5065168;28;20297;-63
2023/09/25 11:17:52;;;;;;;9.85;6.30;;;;;;;-144.30;56.15;83661.41;5065119;28;20196;-62
2023/09/25 11:20:29;;;;;;;10.40;6.72;;;;;;;-144.30;56.02;83663.38;5064967;28;20202;-66